createdAt,value
2017-07-23T00:00:26.829Z,989.02
2017-07-23T00:01:37.102Z,989.09
2017-07-23T00:02:47.370Z,989.05
2017-07-23T00:03:57.639Z,989.09
2017-07-23T00:05:07.911Z,989.06
2017-07-23T00:06:18.181Z,989.06
2017-07-23T00:07:28.143Z,989.05
2017-07-23T00:08:38.418Z,989.07
2017-07-23T00:09:48.683Z,989.06
2017-07-23T00:10:58.955Z,989.04
2017-07-23T00:12:08.914Z,989.04
2017-07-23T00:13:19.186Z,989.07
2017-07-23T00:14:29.460Z,989.02
2017-07-23T00:15:39.727Z,989.06
2017-07-23T00:16:49.997Z,988.99
2017-07-23T00:18:00.268Z,988.99
2017-07-23T00:19:10.247Z,988.98
2017-07-23T00:20:20.517Z,988.98
2017-07-23T00:21:30.788Z,988.99
2017-07-23T00:22:41.064Z,988.95
2017-07-23T00:23:51.333Z,988.97
2017-07-23T00:25:01.606Z,989
2017-07-23T00:26:11.873Z,988.95
2017-07-23T00:27:21.828Z,988.97
2017-07-23T00:28:31.468Z,988.97
2017-07-23T00:29:41.736Z,988.99
2017-07-23T00:30:52.008Z,988.98
2017-07-23T00:32:02.279Z,988.98
2017-07-23T00:33:12.564Z,989
2017-07-23T00:34:22.529Z,988.98
2017-07-23T00:35:32.826Z,988.98
2017-07-23T00:36:42.492Z,988.95
2017-07-23T00:37:52.761Z,988.95
2017-07-23T00:39:03.023Z,988.96
2017-07-23T00:40:13.291Z,988.96
2017-07-23T00:41:23.571Z,988.94
2017-07-23T00:42:33.845Z,988.94
2017-07-23T00:43:43.804Z,988.91
2017-07-23T00:44:54.080Z,988.94
2017-07-23T00:46:04.353Z,988.96
2017-07-23T00:47:14.311Z,988.95
2017-07-23T00:48:24.573Z,988.93
2017-07-23T00:49:34.837Z,988.93
2017-07-23T00:50:44.793Z,988.92
2017-07-23T00:51:55.062Z,988.91
2017-07-23T00:53:05.330Z,988.9
2017-07-23T00:54:15.613Z,988.87
2017-07-23T00:55:25.881Z,988.88
2017-07-23T00:56:35.834Z,988.86
2017-07-23T00:57:46.105Z,988.89
2017-07-23T00:58:56.372Z,988.88
2017-07-23T01:00:06.652Z,988.94
2017-07-23T01:01:16.920Z,988.89
2017-07-23T01:02:27.190Z,988.93
2017-07-23T01:03:37.458Z,988.93
2017-07-23T01:04:47.414Z,988.93
2017-07-23T01:05:57.683Z,988.94
2017-07-23T01:07:07.635Z,988.96
2017-07-23T01:08:17.271Z,988.96
2017-07-23T01:09:27.535Z,988.94
2017-07-23T01:10:37.805Z,988.92
2017-07-23T01:11:47.452Z,988.93
2017-07-23T01:12:57.751Z,988.93
2017-07-23T01:14:07.704Z,988.94
2017-07-23T01:15:17.655Z,988.95
2017-07-23T01:16:27.923Z,988.95
2017-07-23T01:17:38.187Z,988.93
2017-07-23T01:18:48.454Z,988.91
2017-07-23T01:19:58.404Z,988.93
2017-07-23T01:21:08.359Z,988.89
2017-07-23T01:22:18.627Z,988.9
2017-07-23T01:23:28.582Z,988.91
2017-07-23T01:24:38.853Z,988.92
2017-07-23T01:25:49.123Z,988.89
2017-07-23T01:26:59.394Z,988.86
2017-07-23T01:28:09.353Z,988.9
2017-07-23T01:29:19.307Z,988.87
2017-07-23T01:30:29.578Z,988.84
2017-07-23T01:31:39.882Z,988.85
2017-07-23T01:32:49.836Z,988.82
2017-07-23T01:34:00.112Z,988.84
2017-07-23T01:35:10.067Z,988.86
2017-07-23T01:36:20.025Z,988.82
2017-07-23T01:37:29.977Z,988.79
2017-07-23T01:38:40.246Z,988.82
2017-07-23T01:39:50.525Z,988.81
2017-07-23T01:41:00.793Z,988.81
2017-07-23T01:42:11.061Z,988.79
2017-07-23T01:43:21.341Z,988.82
2017-07-23T01:44:31.609Z,988.83
2017-07-23T01:45:41.881Z,988.79
2017-07-23T01:46:52.152Z,988.81
2017-07-23T01:48:02.423Z,988.81
2017-07-23T01:49:12.380Z,988.82
2017-07-23T01:50:22.649Z,988.8
2017-07-23T01:51:32.603Z,988.82
2017-07-23T01:52:42.883Z,988.86
2017-07-23T01:53:53.153Z,988.79
2017-07-23T01:55:03.105Z,988.78
2017-07-23T01:56:13.064Z,988.77
2017-07-23T01:57:23.333Z,988.83
2017-07-23T01:58:33.600Z,988.84
2017-07-23T01:59:43.869Z,988.79
2017-07-23T02:00:54.137Z,988.81
2017-07-23T02:02:04.405Z,988.8
2017-07-23T02:03:14.672Z,988.82
2017-07-23T02:04:24.939Z,988.76
2017-07-23T02:05:35.040Z,988.79
2017-07-23T02:06:45.308Z,988.84
2017-07-23T02:07:55.257Z,988.82
2017-07-23T02:09:05.213Z,988.85
2017-07-23T02:10:15.176Z,988.85
2017-07-23T02:11:25.461Z,988.84
2017-07-23T02:12:35.730Z,988.86
2017-07-23T02:13:46.011Z,988.82
2017-07-23T02:14:56.279Z,988.82
2017-07-23T02:16:06.558Z,988.81
2017-07-23T02:18:30.145Z,988.83
2017-07-23T02:19:40.416Z,988.8
2017-07-23T02:20:50.684Z,988.85
2017-07-23T02:22:00.946Z,988.87
2017-07-23T02:23:10.884Z,988.88
2017-07-23T02:24:21.149Z,988.86
2017-07-23T02:25:31.107Z,988.82
2017-07-23T02:26:41.371Z,988.82
2017-07-23T02:27:51.638Z,988.85
2017-07-23T02:29:01.903Z,988.83
2017-07-23T02:30:12.170Z,988.83
2017-07-23T02:31:22.439Z,988.84
2017-07-23T02:32:32.709Z,988.81
2017-07-23T02:33:42.977Z,988.81
2017-07-23T02:34:53.247Z,988.81
2017-07-23T02:36:03.522Z,988.8
2017-07-23T02:37:13.478Z,988.82
2017-07-23T02:38:23.751Z,988.72
2017-07-23T02:39:34.018Z,988.77
2017-07-23T02:40:44.292Z,988.77
2017-07-23T02:41:54.575Z,988.73
2017-07-23T02:43:04.850Z,988.75
2017-07-23T02:44:15.126Z,988.74
2017-07-23T02:45:25.387Z,988.72
2017-07-23T02:46:35.665Z,988.68
2017-07-23T02:47:45.945Z,988.7
2017-07-23T02:48:56.216Z,988.72
2017-07-23T02:50:06.175Z,988.7
2017-07-23T02:51:16.168Z,988.71
2017-07-23T02:52:26.439Z,988.68
2017-07-23T02:53:36.399Z,988.76
2017-07-23T02:54:46.671Z,988.73
2017-07-23T02:55:56.631Z,988.71
2017-07-23T02:57:06.586Z,988.71
2017-07-23T02:58:16.859Z,988.67
2017-07-23T02:59:27.140Z,988.65
2017-07-23T03:00:37.409Z,988.62
2017-07-23T03:01:47.363Z,988.6
2017-07-23T03:02:57.628Z,988.63
2017-07-23T03:04:07.895Z,988.64
2017-07-23T03:05:18.164Z,988.6
2017-07-23T03:06:28.434Z,988.59
2017-07-23T03:07:38.087Z,988.61
2017-07-23T03:08:48.355Z,988.61
2017-07-23T03:09:58.623Z,988.57
2017-07-23T03:11:08.898Z,988.52
2017-07-23T03:12:18.853Z,988.56
2017-07-23T03:13:29.133Z,988.56
2017-07-23T03:14:39.400Z,988.56
2017-07-23T03:15:49.356Z,988.55
2017-07-23T03:16:59.657Z,988.56
2017-07-23T03:18:09.933Z,988.59
2017-07-23T03:19:20.203Z,988.59
2017-07-23T03:20:30.474Z,988.61
2017-07-23T03:21:40.431Z,988.6
2017-07-23T03:22:50.699Z,988.6
2017-07-23T03:24:00.963Z,988.6
2017-07-23T03:25:11.235Z,988.55
2017-07-23T03:26:21.502Z,988.58
2017-07-23T03:27:31.770Z,988.54
2017-07-23T03:28:42.036Z,988.53
2017-07-23T03:29:52.300Z,988.52
2017-07-23T03:31:02.256Z,988.51
2017-07-23T03:32:12.543Z,988.53
2017-07-23T03:33:22.810Z,988.52
2017-07-23T03:34:33.087Z,988.53
2017-07-23T03:35:43.045Z,988.49
2017-07-23T03:36:53.311Z,988.49
2017-07-23T03:38:03.576Z,988.53
2017-07-23T03:39:13.531Z,988.5
2017-07-23T03:40:23.805Z,988.48
2017-07-23T03:41:34.080Z,988.51
2017-07-23T03:42:44.041Z,988.48
2017-07-23T03:43:54.310Z,988.47
2017-07-23T03:45:04.574Z,988.47
2017-07-23T03:46:14.842Z,988.48
2017-07-23T03:47:25.108Z,988.52
2017-07-23T03:48:35.073Z,988.55
2017-07-23T03:49:45.338Z,988.55
2017-07-23T03:50:55.607Z,988.51
2017-07-23T03:52:05.871Z,988.51
2017-07-23T03:53:16.138Z,988.56
2017-07-23T03:54:26.405Z,988.54
2017-07-23T03:55:36.357Z,988.52
2017-07-23T03:56:46.619Z,988.57
2017-07-23T03:57:56.885Z,988.53
2017-07-23T03:59:07.158Z,988.55
2017-07-23T04:00:17.431Z,988.5
2017-07-23T04:01:27.712Z,988.51
2017-07-23T04:02:37.979Z,988.52
2017-07-23T04:03:48.249Z,988.47
2017-07-23T04:04:58.206Z,988.49
2017-07-23T04:06:08.476Z,988.48
2017-07-23T04:07:18.747Z,988.49
2017-07-23T04:08:29.010Z,988.53
2017-07-23T04:09:39.276Z,988.54
2017-07-23T04:10:49.546Z,988.51
2017-07-23T04:11:59.498Z,988.52
2017-07-23T04:13:09.793Z,988.53
2017-07-23T04:14:19.436Z,988.52
2017-07-23T04:15:29.389Z,988.54
2017-07-23T04:16:39.664Z,988.53
2017-07-23T04:17:49.929Z,988.52
2017-07-23T04:19:00.204Z,988.5
2017-07-23T04:20:10.473Z,988.5
2017-07-23T04:21:20.433Z,988.5
2017-07-23T04:22:30.708Z,988.53
2017-07-23T04:23:40.661Z,988.53
2017-07-23T04:24:50.615Z,988.52
2017-07-23T04:26:00.880Z,988.51
2017-07-23T04:27:11.149Z,988.52
2017-07-23T04:28:21.415Z,988.49
2017-07-23T04:29:31.687Z,988.5
2017-07-23T04:30:41.960Z,988.51
2017-07-23T04:31:52.227Z,988.54
2017-07-23T04:33:02.497Z,988.53
2017-07-23T04:34:12.764Z,988.5
2017-07-23T04:35:22.722Z,988.49
2017-07-23T04:36:32.990Z,988.54
2017-07-23T04:37:43.264Z,988.53
2017-07-23T04:38:53.221Z,988.56
2017-07-23T04:40:03.489Z,988.55
2017-07-23T04:41:13.445Z,988.55
2017-07-23T04:42:23.712Z,988.52
2017-07-23T04:43:33.980Z,988.51
2017-07-23T04:44:43.936Z,988.53
2017-07-23T04:45:54.215Z,988.51
2017-07-23T04:47:04.487Z,988.53
2017-07-23T04:48:14.450Z,988.5
2017-07-23T04:49:24.717Z,988.5
2017-07-23T04:50:34.983Z,988.55
2017-07-23T04:51:44.940Z,988.5
2017-07-23T04:52:54.890Z,988.52
2017-07-23T04:54:05.164Z,988.52
2017-07-23T04:55:15.118Z,988.51
2017-07-23T04:56:25.389Z,988.5
2017-07-23T04:57:35.674Z,988.48
2017-07-23T04:58:45.950Z,988.49
2017-07-23T04:59:56.219Z,988.43
2017-07-23T05:01:06.185Z,988.39
2017-07-23T05:02:16.471Z,988.43
2017-07-23T05:03:26.742Z,988.43
2017-07-23T05:04:37.014Z,988.39
2017-07-23T05:05:47.284Z,988.38
2017-07-23T05:06:57.558Z,988.39
2017-07-23T05:08:07.830Z,988.39
2017-07-23T05:09:18.103Z,988.38
2017-07-23T05:10:28.396Z,988.39
2017-07-23T05:11:38.671Z,988.39
2017-07-23T05:12:48.937Z,988.42
2017-07-23T05:13:58.904Z,988.4
2017-07-23T05:15:09.177Z,988.37
2017-07-23T05:16:19.135Z,988.33
2017-07-23T05:17:29.414Z,988.36
2017-07-23T05:18:39.695Z,988.33
2017-07-23T05:19:49.972Z,988.36
2017-07-23T05:21:00.245Z,988.36
2017-07-23T05:22:10.523Z,988.35
2017-07-23T05:23:20.493Z,988.35
2017-07-23T05:24:30.451Z,988.36
2017-07-23T05:25:40.721Z,988.32
2017-07-23T05:26:50.989Z,988.34
2017-07-23T05:28:00.951Z,988.33
2017-07-23T05:29:11.217Z,988.3
2017-07-23T05:30:21.486Z,988.32
2017-07-23T05:31:31.769Z,988.31
2017-07-23T05:32:42.040Z,988.33
2017-07-23T05:33:52.313Z,988.3
2017-07-23T05:35:02.602Z,988.27
2017-07-23T05:36:12.561Z,988.27
2017-07-23T05:37:22.520Z,988.26
2017-07-23T05:38:32.786Z,988.29
2017-07-23T05:39:42.742Z,988.33
2017-07-23T05:40:53.012Z,988.3
2017-07-23T05:42:03.286Z,988.32
2017-07-23T05:43:13.565Z,988.32
2017-07-23T05:44:23.842Z,988.32
2017-07-23T05:45:34.116Z,988.31
2017-07-23T05:46:44.393Z,988.31
2017-07-23T05:47:54.673Z,988.32
2017-07-23T05:49:04.628Z,988.3
2017-07-23T05:50:14.917Z,988.31
2017-07-23T05:51:24.873Z,988.24
2017-07-23T05:52:34.827Z,988.26
2017-07-23T05:53:45.106Z,988.26
2017-07-23T05:54:55.381Z,988.27
2017-07-23T05:56:05.666Z,988.28
2017-07-23T05:57:15.623Z,988.27
2017-07-23T05:58:25.900Z,988.28
2017-07-23T05:59:35.866Z,988.24
2017-07-23T06:00:46.137Z,988.25
2017-07-23T06:01:56.417Z,988.24
2017-07-23T06:03:06.700Z,988.21
2017-07-23T06:04:16.969Z,988.23
2017-07-23T06:05:26.928Z,988.25
2017-07-23T06:06:37.205Z,988.27
2017-07-23T06:07:47.482Z,988.26
2017-07-23T06:08:57.442Z,988.26
2017-07-23T06:10:07.714Z,988.26
2017-07-23T06:11:18.001Z,988.22
2017-07-23T06:12:28.271Z,988.25
2017-07-23T06:13:38.541Z,988.22
2017-07-23T06:14:48.814Z,988.26
2017-07-23T06:15:59.085Z,988.26
2017-07-23T06:17:09.354Z,988.25
2017-07-23T06:18:19.308Z,988.25
2017-07-23T06:19:29.579Z,988.25
2017-07-23T06:20:39.849Z,988.23
2017-07-23T06:21:50.127Z,988.24
2017-07-23T06:23:00.400Z,988.2
2017-07-23T06:24:10.366Z,988.23
2017-07-23T06:25:20.643Z,988.25
2017-07-23T06:26:30.625Z,988.23
2017-07-23T06:27:40.898Z,988.25
2017-07-23T06:28:51.180Z,988.25
2017-07-23T06:30:01.141Z,988.25
2017-07-23T06:31:11.099Z,988.23
2017-07-23T06:32:21.370Z,988.26
2017-07-23T06:33:31.640Z,988.26
2017-07-23T06:34:41.916Z,988.23
2017-07-23T06:35:52.214Z,988.21
2017-07-23T06:37:02.202Z,988.24
2017-07-23T06:38:12.165Z,988.17
2017-07-23T06:39:22.123Z,988.18
2017-07-23T06:40:32.398Z,988.2
2017-07-23T06:41:42.672Z,988.21
2017-07-23T06:42:52.945Z,988.14
2017-07-23T06:44:03.220Z,988.17
2017-07-23T06:45:13.181Z,988.19
2017-07-23T06:46:23.140Z,988.24
2017-07-23T06:47:33.425Z,988.24
2017-07-23T06:48:43.712Z,988.25
2017-07-23T06:49:53.978Z,988.25
2017-07-23T06:51:04.251Z,988.19
2017-07-23T06:52:14.521Z,988.24
2017-07-23T06:53:24.490Z,988.19
2017-07-23T06:54:34.762Z,988.19
2017-07-23T06:55:44.719Z,988.21
2017-07-23T06:56:54.994Z,988.19
2017-07-23T06:58:04.962Z,988.19
2017-07-23T06:59:15.237Z,988.19
2017-07-23T07:00:25.506Z,988.2
2017-07-23T07:01:35.780Z,988.23
2017-07-23T07:02:46.051Z,988.19
2017-07-23T07:03:56.325Z,988.16
2017-07-23T07:05:06.595Z,988.17
2017-07-23T07:06:16.865Z,988.16
2017-07-23T07:07:27.140Z,988.14
2017-07-23T07:08:37.099Z,988.16
2017-07-23T07:09:47.375Z,988.16
2017-07-23T07:10:57.657Z,988.14
2017-07-23T07:12:07.619Z,988.14
2017-07-23T07:13:17.888Z,988.12
2017-07-23T07:14:28.167Z,988.14
2017-07-23T07:15:38.435Z,988.17
2017-07-23T07:16:48.710Z,988.16
2017-07-23T07:17:58.679Z,988.17
2017-07-23T07:19:08.955Z,988.15
2017-07-23T07:20:19.228Z,988.11
2017-07-23T07:21:29.498Z,988.09
2017-07-23T07:22:39.770Z,988.1
2017-07-23T07:23:50.049Z,988.05
2017-07-23T07:25:00.321Z,988.1
2017-07-23T07:26:10.284Z,988.09
2017-07-23T07:27:20.558Z,988.08
2017-07-23T07:28:30.519Z,988.04
2017-07-23T07:29:40.796Z,988.07
2017-07-23T07:30:51.069Z,988.05
2017-07-23T07:32:01.342Z,987.95
2017-07-23T07:33:11.613Z,988.02
2017-07-23T07:34:21.886Z,988
2017-07-23T07:35:32.162Z,988.01
2017-07-23T07:36:42.439Z,987.98
2017-07-23T07:37:52.719Z,988.01
2017-07-23T07:39:02.686Z,988.01
2017-07-23T07:40:12.963Z,987.96
2017-07-23T07:41:22.920Z,987.96
2017-07-23T07:42:33.251Z,987.96
2017-07-23T07:43:43.527Z,987.93
2017-07-23T07:44:53.806Z,987.93
2017-07-23T07:46:03.452Z,987.93
2017-07-23T07:47:13.733Z,987.92
2017-07-23T07:48:23.692Z,987.91
2017-07-23T07:49:33.968Z,987.89
2017-07-23T07:50:43.929Z,987.87
2017-07-23T07:51:54.200Z,987.85
2017-07-23T07:53:04.162Z,987.83
2017-07-23T07:54:14.130Z,987.84
2017-07-23T07:55:24.087Z,987.82
2017-07-23T07:56:34.368Z,987.81
2017-07-23T07:57:44.656Z,987.82
2017-07-23T07:58:54.935Z,987.83
2017-07-23T08:00:05.209Z,987.83
2017-07-23T08:01:15.170Z,987.78
2017-07-23T08:02:25.456Z,987.77
2017-07-23T08:03:35.736Z,987.75
2017-07-23T08:04:46.010Z,987.72
2017-07-23T08:05:55.968Z,987.74
2017-07-23T08:07:06.248Z,987.73
2017-07-23T08:08:16.524Z,987.75
2017-07-23T08:09:26.182Z,987.76
2017-07-23T08:10:35.833Z,987.75
2017-07-23T08:11:45.481Z,987.73
2017-07-23T08:12:55.764Z,987.73
2017-07-23T08:14:06.053Z,987.78
2017-07-23T08:15:16.030Z,987.76
2017-07-23T08:16:26.302Z,987.75
2017-07-23T08:17:36.576Z,987.73
2017-07-23T08:18:46.851Z,987.74
2017-07-23T08:19:56.496Z,987.73
2017-07-23T08:21:06.770Z,987.71
2017-07-23T08:22:17.040Z,987.7
2017-07-23T08:23:26.998Z,987.69
2017-07-23T08:24:36.954Z,987.67
2017-07-23T08:25:46.912Z,987.67
2017-07-23T08:26:57.188Z,987.69
2017-07-23T08:28:07.465Z,987.66
2017-07-23T08:29:17.122Z,987.67
2017-07-23T08:30:27.080Z,987.69
2017-07-23T08:31:37.040Z,987.69
2017-07-23T08:32:47.320Z,987.63
2017-07-23T08:33:57.625Z,987.67
2017-07-23T08:35:07.907Z,987.67
2017-07-23T08:36:17.873Z,987.67
2017-07-23T08:37:27.834Z,987.7
2017-07-23T08:38:38.119Z,987.66
2017-07-23T08:39:48.393Z,987.63
2017-07-23T08:40:58.683Z,987.65
2017-07-23T08:42:08.643Z,987.67
2017-07-23T08:43:18.922Z,987.64
2017-07-23T08:44:28.885Z,987.61
2017-07-23T08:45:38.850Z,987.55
2017-07-23T08:46:49.120Z,987.57
2017-07-23T08:47:59.404Z,987.58
2017-07-23T08:49:09.677Z,987.57
2017-07-23T08:50:19.641Z,987.61
2017-07-23T08:51:29.605Z,987.56
2017-07-23T08:52:39.571Z,987.56
2017-07-23T08:53:49.846Z,987.55
2017-07-23T08:55:00.152Z,987.52
2017-07-23T08:56:10.428Z,987.52
2017-07-23T08:57:20.703Z,987.57
2017-07-23T08:58:30.670Z,987.49
2017-07-23T08:59:40.966Z,987.52
2017-07-23T09:00:50.933Z,987.54
2017-07-23T09:02:01.208Z,987.54
2017-07-23T09:03:11.170Z,987.57
2017-07-23T09:04:21.444Z,987.56
2017-07-23T09:05:31.105Z,987.57
2017-07-23T09:06:41.069Z,987.57
2017-07-23T09:07:51.344Z,987.56
2017-07-23T09:09:01.303Z,987.57
2017-07-23T09:10:11.283Z,987.52
2017-07-23T09:11:21.556Z,987.53
2017-07-23T09:12:31.518Z,987.51
2017-07-23T09:13:41.795Z,987.53
2017-07-23T09:14:51.453Z,987.55
2017-07-23T09:16:01.731Z,987.5
2017-07-23T09:17:12.017Z,987.48
2017-07-23T09:18:22.329Z,987.5
2017-07-23T09:19:32.615Z,987.46
2017-07-23T09:20:42.588Z,987.42
2017-07-23T09:21:52.556Z,987.41
2017-07-23T09:23:02.837Z,987.42
2017-07-23T09:24:13.111Z,987.4
2017-07-23T09:25:23.384Z,987.41
2017-07-23T09:26:33.683Z,987.38
2017-07-23T09:27:43.968Z,987.42
2017-07-23T09:28:53.930Z,987.39
2017-07-23T09:30:03.916Z,987.41
2017-07-23T09:31:14.205Z,987.43
2017-07-23T09:32:24.490Z,987.46
2017-07-23T09:33:34.765Z,987.46
2017-07-23T09:34:44.412Z,987.44
2017-07-23T09:35:54.059Z,987.4
2017-07-23T09:37:04.379Z,987.37
2017-07-23T09:38:14.341Z,987.4
2017-07-23T09:39:24.625Z,987.36
2017-07-23T09:40:34.907Z,987.34
2017-07-23T09:41:44.553Z,987.36
2017-07-23T09:42:54.207Z,987.35
2017-07-23T09:44:04.178Z,987.32
2017-07-23T09:45:14.141Z,987.34
2017-07-23T09:46:24.415Z,987.36
2017-07-23T09:47:34.378Z,987.31
2017-07-23T09:48:44.656Z,987.28
2017-07-23T09:49:54.627Z,987.28
2017-07-23T09:51:04.587Z,987.24
2017-07-23T09:52:14.550Z,987.2
2017-07-23T09:53:24.512Z,987.22
2017-07-23T09:54:34.785Z,987.26
2017-07-23T09:55:44.747Z,987.18
2017-07-23T09:56:54.709Z,987.21
2017-07-23T09:58:04.985Z,987.18
2017-07-23T09:59:15.262Z,987.12
2017-07-23T10:00:24.916Z,987.16
2017-07-23T10:01:35.201Z,987.16
2017-07-23T10:02:45.481Z,987.15
2017-07-23T10:03:55.754Z,987.16
2017-07-23T10:05:05.405Z,987.11
2017-07-23T10:06:15.058Z,987.1
2017-07-23T10:07:25.334Z,987.07
2017-07-23T10:08:35.614Z,987.08
2017-07-23T10:09:45.905Z,987.08
2017-07-23T10:10:56.201Z,987.04
2017-07-23T10:12:06.161Z,987.04
2017-07-23T10:13:15.815Z,987.04
2017-07-23T10:14:26.098Z,987.01
2017-07-23T10:15:36.063Z,987.01
2017-07-23T10:16:46.350Z,986.97
2017-07-23T10:17:56.632Z,986.96
2017-07-23T10:19:06.909Z,986.95
2017-07-23T10:20:17.187Z,986.92
2017-07-23T10:21:27.157Z,986.92
2017-07-23T10:22:37.453Z,986.94
2017-07-23T10:23:47.409Z,986.91
2017-07-23T10:24:57.693Z,986.92
2017-07-23T10:26:07.969Z,986.91
2017-07-23T10:27:18.244Z,986.85
2017-07-23T10:28:28.519Z,986.89
2017-07-23T10:29:38.163Z,986.85
2017-07-23T10:30:48.439Z,986.87
2017-07-23T10:31:58.720Z,986.89
2017-07-23T10:33:09.006Z,986.86
2017-07-23T10:34:19.288Z,986.81
2017-07-23T10:35:29.253Z,986.79
2017-07-23T10:36:39.535Z,986.76
2017-07-23T10:37:49.219Z,986.78
2017-07-23T10:38:59.511Z,986.76
2017-07-23T10:40:09.480Z,986.76
2017-07-23T10:41:19.443Z,986.72
2017-07-23T10:42:29.725Z,986.73
2017-07-23T10:43:39.694Z,986.67
2017-07-23T10:44:49.975Z,986.74
2017-07-23T10:46:00.256Z,986.68
2017-07-23T10:47:10.223Z,986.67
2017-07-23T10:48:20.194Z,986.64
2017-07-23T10:49:30.471Z,986.64
2017-07-23T10:50:40.745Z,986.58
2017-07-23T10:51:51.016Z,986.56
2017-07-23T10:53:00.978Z,986.55
2017-07-23T10:54:11.270Z,986.53
2017-07-23T10:55:20.919Z,986.54
2017-07-23T10:56:30.888Z,986.47
2017-07-23T10:57:41.196Z,986.52
2017-07-23T10:58:51.475Z,986.48
2017-07-23T11:00:01.441Z,986.44
2017-07-23T11:01:11.411Z,986.43
2017-07-23T11:02:21.689Z,986.4
2017-07-23T11:03:31.653Z,986.35
2017-07-23T11:04:41.935Z,986.34
2017-07-23T11:05:51.585Z,986.32
2017-07-23T11:07:01.890Z,986.33
2017-07-23T11:08:12.190Z,986.34
2017-07-23T11:09:22.154Z,986.29
2017-07-23T11:10:32.431Z,986.27
2017-07-23T11:11:42.084Z,986.27
2017-07-23T11:12:52.047Z,986.29
2017-07-23T11:14:02.326Z,986.29
2017-07-23T11:15:12.605Z,986.24
2017-07-23T11:16:22.881Z,986.21
2017-07-23T11:17:32.845Z,986.22
2017-07-23T11:18:43.136Z,986.18
2017-07-23T11:19:53.108Z,986.16
2017-07-23T11:21:03.076Z,986.2
2017-07-23T11:22:13.044Z,986.19
2017-07-23T11:23:23.322Z,986.2
2017-07-23T11:24:33.294Z,986.15
2017-07-23T11:25:43.569Z,986.18
2017-07-23T11:26:53.533Z,986.14
2017-07-23T11:28:03.497Z,986.14
2017-07-23T11:29:13.464Z,986.14
2017-07-23T11:30:23.430Z,986.17
2017-07-23T11:31:33.711Z,986.14
2017-07-23T11:32:43.999Z,986.13
2017-07-23T11:33:54.287Z,986.16
2017-07-23T11:35:04.566Z,986.14
2017-07-23T11:36:14.215Z,986.16
2017-07-23T11:37:24.178Z,986.15
2017-07-23T11:38:34.142Z,986.22
2017-07-23T11:39:44.109Z,986.23
2017-07-23T11:40:54.390Z,986.18
2017-07-23T11:42:04.355Z,986.27
2017-07-23T11:43:14.325Z,986.31
2017-07-23T11:44:24.603Z,986.3
2017-07-23T11:45:34.881Z,986.26
2017-07-23T11:46:44.852Z,986.25
2017-07-23T11:47:55.138Z,986.27
2017-07-23T11:49:05.418Z,986.21
2017-07-23T11:50:15.703Z,986.2
2017-07-23T11:51:25.983Z,986.15
2017-07-23T11:52:36.281Z,986.21
2017-07-23T11:53:45.939Z,986.14
2017-07-23T11:54:55.595Z,986.09
2017-07-23T11:56:05.906Z,986.1
2017-07-23T11:57:15.567Z,986.09
2017-07-23T11:58:25.222Z,986.14
2017-07-23T11:59:35.511Z,986.05
2017-07-23T12:00:45.486Z,986.01
2017-07-23T12:01:55.774Z,986.07
2017-07-23T12:03:05.748Z,985.96
2017-07-23T12:04:15.414Z,986.04
2017-07-23T12:05:25.703Z,986.05
2017-07-23T12:06:35.988Z,986.01
2017-07-23T12:07:46.274Z,986.01
2017-07-23T12:08:56.247Z,985.97
2017-07-23T12:10:06.219Z,986
2017-07-23T12:11:16.510Z,986.04
2017-07-23T12:12:26.175Z,986.04
2017-07-23T12:13:36.455Z,986.05
2017-07-23T12:14:46.749Z,986.09
2017-07-23T12:15:56.724Z,985.99
2017-07-23T12:17:07.015Z,986
2017-07-23T12:18:17.304Z,986.09
2017-07-23T12:19:27.591Z,986.08
2017-07-23T12:20:37.885Z,985.96
2017-07-23T12:21:48.174Z,985.97
2017-07-23T12:22:58.464Z,985.99
2017-07-23T12:24:08.757Z,986.06
2017-07-23T12:25:18.417Z,986
2017-07-23T12:26:28.707Z,985.95
2017-07-23T12:27:38.684Z,985.94
2017-07-23T12:28:48.662Z,986
2017-07-23T12:29:58.951Z,986.01
2017-07-23T12:31:09.240Z,985.88
2017-07-23T12:32:19.223Z,985.88
2017-07-23T12:33:28.904Z,985.89
2017-07-23T12:34:39.199Z,985.89
2017-07-23T12:35:49.172Z,985.85
2017-07-23T12:36:59.475Z,985.87
2017-07-23T12:38:09.459Z,985.85
2017-07-23T12:39:19.437Z,985.83
2017-07-23T12:40:29.736Z,985.89
2017-07-23T12:41:39.402Z,985.81
2017-07-23T12:42:49.851Z,985.85
2017-07-23T12:43:59.827Z,985.75
2017-07-23T12:45:09.804Z,985.8
2017-07-23T12:46:19.781Z,985.6
2017-07-23T12:47:30.077Z,985.77
2017-07-23T12:48:40.370Z,985.74
2017-07-23T12:49:50.685Z,985.7
2017-07-23T12:51:00.980Z,985.73
2017-07-23T12:52:11.278Z,985.7
2017-07-23T12:53:21.581Z,985.73
2017-07-23T12:54:31.887Z,985.69
2017-07-23T12:55:41.871Z,985.7
2017-07-23T12:56:52.211Z,985.28
2017-07-23T12:58:02.504Z,985.3
2017-07-23T12:59:12.794Z,985.39
2017-07-23T13:00:23.085Z,985.42
2017-07-23T13:01:33.372Z,985.39
2017-07-23T13:02:43.349Z,985.49
2017-07-23T13:03:53.324Z,985.5
2017-07-23T13:05:03.611Z,985.51
2017-07-23T13:06:13.283Z,985.5
2017-07-23T13:07:23.260Z,985.48
2017-07-23T13:08:33.234Z,985.54
2017-07-23T13:09:43.521Z,985.54
2017-07-23T13:10:53.815Z,985.58
2017-07-23T13:12:04.101Z,985.54
2017-07-23T13:13:14.088Z,985.61
2017-07-23T13:14:23.747Z,985.62
2017-07-23T13:15:33.719Z,985.58
2017-07-23T13:16:43.694Z,985.61
2017-07-23T13:17:53.980Z,985.73
2017-07-23T13:19:04.266Z,985.59
2017-07-23T13:20:14.241Z,985.67
2017-07-23T13:21:24.532Z,985.57
2017-07-23T13:22:34.822Z,986.13
2017-07-23T13:23:45.129Z,986.07
2017-07-23T13:24:55.420Z,986.02
2017-07-23T13:26:05.710Z,985.98
2017-07-23T13:27:16.002Z,985.9
2017-07-23T13:28:26.304Z,985.9
2017-07-23T13:29:36.591Z,985.92
2017-07-23T13:30:46.918Z,985.91
2017-07-23T13:31:57.209Z,985.9
2017-07-23T13:33:07.498Z,985.27
2017-07-23T13:34:17.801Z,985.24
2017-07-23T13:35:27.787Z,985.35
2017-07-23T13:36:37.453Z,985.31
2017-07-23T13:37:47.744Z,985.39
2017-07-23T13:38:57.722Z,985.42
2017-07-23T13:40:08.010Z,985.45
2017-07-23T13:41:18.293Z,985.43
2017-07-23T13:42:28.580Z,985.47
2017-07-23T13:43:38.874Z,985.41
2017-07-23T13:44:48.864Z,985.4
2017-07-23T13:45:59.149Z,985.45
2017-07-23T13:47:08.808Z,985.43
2017-07-23T13:48:19.107Z,985.46
2017-07-23T13:49:28.765Z,985.45
2017-07-23T13:50:38.422Z,985.41
2017-07-23T13:51:48.714Z,985.45
2017-07-23T13:52:58.995Z,985.41
2017-07-23T13:54:09.295Z,985.38
2017-07-23T13:55:19.588Z,985.39
2017-07-23T13:56:29.557Z,985.34
2017-07-23T13:57:39.848Z,985.31
2017-07-23T13:58:49.818Z,985.34
2017-07-23T14:00:00.141Z,985.33
2017-07-23T14:01:10.495Z,985.33
2017-07-23T14:02:20.461Z,985.29
2017-07-23T14:03:30.431Z,985.27
2017-07-23T14:04:40.428Z,985.29
2017-07-23T14:05:50.395Z,985.29
2017-07-23T14:07:00.674Z,985.24
2017-07-23T14:08:10.648Z,985.26
2017-07-23T14:09:20.618Z,985.24
2017-07-23T14:10:30.882Z,985.27
2017-07-23T14:11:41.161Z,985.25
2017-07-23T14:12:51.138Z,985.22
2017-07-23T14:14:00.800Z,985.21
2017-07-23T14:15:10.456Z,985.18
2017-07-23T14:16:20.107Z,985.15
2017-07-23T14:17:30.394Z,985.16
2017-07-23T14:18:40.371Z,985.17
2017-07-23T14:19:50.337Z,985.17
2017-07-23T14:21:00.616Z,985.13
2017-07-23T14:22:10.586Z,985.13
2017-07-23T14:23:20.240Z,985.12
2017-07-23T14:24:30.206Z,985.13
2017-07-23T14:25:40.483Z,985.1
2017-07-23T14:26:50.763Z,985.12
2017-07-23T14:28:01.046Z,985.06
2017-07-23T14:29:10.711Z,985.13
2017-07-23T14:30:20.992Z,985.08
2017-07-23T14:31:30.964Z,985.09
2017-07-23T14:32:41.258Z,985.05
2017-07-23T14:33:50.911Z,985.1
2017-07-23T14:35:00.878Z,985.1
2017-07-23T14:36:10.841Z,985.1
2017-07-23T14:37:20.177Z,985.06
2017-07-23T14:38:30.143Z,985.04
2017-07-23T14:39:39.808Z,985.06